Hovedside
METAR-TAF:

METAR-TAF

Lufthavner :

Porto Santo lufthavn

Porto Santo, Portugal

breddegrad: 33-04N, lengdegrad: 016-21W, høyde over havet: 97 m

Gjeldene værobservasjon

Denne rapporten ble laget for 28 minutter siden, klokken 19:30 UTC
Vind 16 kt fra Øst, skiftende mellom Nordøst og Øst-sørøst
Temperatur 22°C
Luftfuktighet 46%
Trykk 1020 hPa
Sikt 10 km eller mer
ingen skyer under 1500 m og ingen bygeskyer

METAR: LPPS 121930Z 09016KT 050V110 CAVOK 22/10 Q1020

Tid: 20:58 (19:58 UTC)

Varsel

Denne rapporten ble laget for 2 timer og 58 minutter siden, klokken 17:00 UTC
Varsel gyldig fra 12. klokken 18 UTC til 13. klokken 24 UTC
Vind 12 kt fra Øst
Sikt 10 km eller mer
Få skyer i en høyde av 1200 ft
Midlertidig
fra 12. klokken 18 UTC til 13. klokken 24 UTC
Vind 12 kt fra Øst-nordøst

TAF: LPPS 121700Z 1218/1324 09012KT 9999 FEW012 TEMPO 1218/1324 06012KT

Værobservasjoner og værvarsel for over 4000 flyplasser (METAR- og TAF-rapporter).

Tilgjengelige stasjoner er representert av de røde og gule prikkene på kartet.

Hold musepekeren over prikken for å se navnet på stasjonen.

Klikk så for å se værobservasjoner og -varsler.

For å forandre kartet kan du klikke på den grønne knappen med svart kryss for å zoome inn, på den grønne knappen med strek for å zoome ut, eller på de grønne pilene for å se tilstøtende kart.


METAR-TAF: